Flight Track Log - Related Links

Times and Time Zones

All times are in EDT time to prevent confusion due to time zone crossing. See the ASQ4252 flight status page for this flight to view local times or setup timezone preferences in your user account.

Time Position Orientation Groundspeed Altitude Reporting Facility
EDT Latitude Longitude Course Direction KTS MPH feet Rate Location/Type
Wed 08:57:34 AM 41.9500 -87.8333 194° South 240 276 4,400  Level Chicago TRACON
Wed 08:58:23 AM 41.8839 -87.8658 200° South 285 328 5,000 973 Climbing Chicago Center
Wed 08:59:25 AM 41.8100 -87.8969 197° South 282 325 6,200 2,274 Climbing Chicago Center
Wed 09:00:00 AM 41.6800 -88.2841 197° South  Level Estimated
Wed 09:00:27 AM 41.7411 -87.9442 207° Southwest 282 325 9,700  Level Chicago Center
Wed 09:01:00 AM 41.5845 -88.2321 158° South  Level FlightAware Approximate
Wed 09:01:29 AM 41.6681 -87.9956 208° Southwest 295 339 12,500  Level Chicago Center
Wed 09:02:00 AM 41.5115 -88.3251 194° South  Level Estimated
Wed 09:02:31 AM 41.5917 -88.0467 207° Southwest 307 353 14,800  Level Chicago Center
Wed 09:03:33 AM 41.4817 -88.1011 200° South 361 415 16,200 1,355 Climbing Chicago Center
Wed 09:04:35 AM 41.3856 -88.1483 200° South 387 445 17,600 1,355 Climbing Chicago Center
Wed 09:05:37 AM 41.2819 -88.1994 200° South 401 461 19,000 1,645 Climbing Chicago Center
Wed 09:06:39 AM 41.1544 -88.2639 201° Southwest 411 473 21,000 1,742 Climbing Chicago Center
Wed 09:07:41 AM 41.0469 -88.3161 200° South 414 476 22,600 1,645 Climbing Chicago Center
Wed 09:08:43 AM 40.9406 -88.3669 200° South 410 472 24,400 1,742 Climbing Chicago Center
Wed 09:09:45 AM 40.8342 -88.4189 200° South 409 471 26,200 1,694 Climbing Chicago Center
Wed 09:10:47 AM 40.7294 -88.4694 200° South 405 466 27,900 1,887 Climbing Chicago Center
Wed 09:11:49 AM 40.6061 -88.5281 200° South 396 456 30,100 1,839 Climbing Chicago Center
Wed 09:12:51 AM 40.5031 -88.5775 200° South 395 455 31,700 1,258 Climbing Chicago Center
Wed 09:13:53 AM 40.4086 -88.6228 200° South 399 459 32,700 629 Climbing Chicago Center
Wed 09:14:55 AM 40.3019 -88.6892 205° Southwest 425 489 33,000 581 Climbing Chicago Center
Wed 09:15:57 AM 40.1992 -88.8181 224° Southwest 426 490 33,900 484 Climbing Chicago Center
Wed 09:16:59 AM 40.1125 -88.9278 224° Southwest 431 496 34,000 48 Climbing Chicago Center
Wed 09:18:02 AM 40.0239 -89.0428 225° Southwest 444 511 34,000  Level Chicago Center
Wed 09:18:47 AM 39.9500 -89.1322 223° Southwest 444 511 34,000  Level Kansas City Center
Wed 09:19:49 AM 39.8625 -89.2439 224° Southwest 441 507 34,000  Level Kansas City Center
Wed 09:20:50 AM 39.7772 -89.3514 224° Southwest 432 497 34,000  Level Kansas City Center
Wed 09:21:52 AM 39.6869 -89.4647 224° Southwest 423 487 34,000  Level Kansas City Center
Wed 09:22:54 AM 39.6036 -89.5683 224° Southwest 418 481 34,000  Level Kansas City Center
Wed 09:23:55 AM 39.5208 -89.6742 225° Southwest 418 481 34,000  Level Kansas City Center
Wed 09:24:57 AM 39.4369 -89.7753 223° Southwest 416 479 34,000  Level Kansas City Center
Wed 09:25:59 AM 39.3531 -89.8811 224° Southwest 419 482 34,000  Level Kansas City Center
Wed 09:27:01 AM 39.2683 -89.9839 223° Southwest 419 482 34,000  Level Kansas City Center
Wed 09:28:03 AM 39.1675 -90.1086 224° Southwest 421 484 34,000  Level Kansas City Center
Wed 09:29:04 AM 39.0828 -90.2133 224° Southwest 423 487 34,000  Level Kansas City Center
Wed 09:30:06 AM 38.9986 -90.3167 224° Southwest 422 486 34,000  Level Kansas City Center
Wed 09:31:08 AM 38.9053 -90.4306 224° Southwest 420 483 34,000  Level Kansas City Center
Wed 09:32:10 AM 38.8236 -90.5392 226° Southwest 421 484 34,000  Level Kansas City Center
Wed 09:33:12 AM 38.7483 -90.6475 228° Southwest 404 465 34,000  Level Kansas City Center
Wed 09:34:13 AM 38.6717 -90.7672 231° Southwest 415 478 34,000  Level Kansas City Center
Wed 09:35:15 AM 38.5978 -90.8778 229° Southwest 414 476 34,000  Level Kansas City Center
Wed 09:36:17 AM 38.5211 -90.9903 229° Southwest 418 481 34,000  Level Kansas City Center
Wed 09:37:19 AM 38.4461 -91.1022 229° Southwest 418 481 34,000  Level Kansas City Center
Wed 09:38:21 AM 38.3706 -91.2125 229° Southwest 416 479 34,000  Level Kansas City Center
Wed 09:39:23 AM 38.2803 -91.3444 229° Southwest 415 478 34,000  Level Kansas City Center
Wed 09:40:24 AM 38.2056 -91.4531 229° Southwest 408 470 34,000  Level Kansas City Center
Wed 09:41:26 AM 38.1283 -91.5664 229° Southwest 415 478 34,000 -242 Level Kansas City Center
Wed 09:42:28 AM 38.0508 -91.6772 228° Southwest 419 482 33,500 -919 Descending Kansas City Center
Wed 09:43:30 AM 37.9739 -91.7894 229° Southwest 419 482 32,100 -1,403 Descending Kansas City Center
Wed 09:44:32 AM 37.8944 -91.9044 229° Southwest 428 493 30,600 -1,403 Descending Kansas City Center
Wed 09:45:34 AM 37.8136 -92.0197 228° Southwest 433 498 29,200 -1,512 Descending Kansas City Center
Wed 09:46:35 AM 37.7225 -92.1486 228° Southwest 436 502 27,500 -1,415 Descending Kansas City Center
Wed 09:47:37 AM 37.6508 -92.2528 229° Southwest 437 503 26,300 -1,452 Descending Kansas City Center
Wed 09:48:39 AM 37.5531 -92.3944 229° Southwest 440 506 24,500 -1,597 Descending Kansas City Center
Wed 09:49:41 AM 37.4703 -92.5111 228° Southwest 442 509 23,000 -1,355 Descending Kansas City Center
Wed 09:50:43 AM 37.3878 -92.6286 229° Southwest 443 510 21,700 -1,258 Descending Kansas City Center
Wed 09:51:45 AM 37.3064 -92.7386 227° Southwest 433 498 20,400 -1,220 Descending Kansas City Center
Wed 09:52:46 AM 37.2256 -92.8503 228° Southwest 431 496 19,200 -1,220 Descending Kansas City Center
Wed 09:53:48 AM 37.1456 -92.9611 228° Southwest 428 493 17,900 -1,161 Descending Kansas City Center
Wed 09:54:50 AM 37.0672 -93.0708 228° Southwest 424 488 16,800 -1,258 Descending Kansas City Center
Wed 09:55:52 AM 36.9928 -93.1747 228° Southwest 409 471 15,300 -1,597 Descending Kansas City Center
Wed 09:56:54 AM 36.9078 -93.2922 228° Southwest 385 443 13,500 -1,355 Descending Kansas City Center
Wed 09:57:56 AM 36.8433 -93.3731 225° Southwest 373 429 12,500 -968 Descending Kansas City Center
Wed 09:58:58 AM 36.7706 -93.4661 226° Southwest 373 429 11,500 -1,016 Descending Kansas City Center
Wed 10:00:00 AM 36.6958 -93.5597 225° Southwest 380 437 10,400 -732 Descending Kansas City Center
Wed 10:01:01 AM 36.6069 -93.6711 225° Southwest 380 437 10,000 -195 Descending Kansas City Center
Wed 10:02:03 AM 36.5533 -93.7692 236° Southwest 351 404 10,000 -677 Level Kansas City Center
Wed 10:03:05 AM 36.5256 -93.8608 249° West 299 344 8,600 -1,500 Descending Kansas City Center
Wed 10:04:07 AM 36.4967 -93.9472 247° West 280 322 6,900 -1,258 Descending Kansas City Center
Wed 10:05:09 AM 36.4708 -94.0300 249° West 269 310 6,000 -774 Descending Kansas City Center
Wed 10:06:11 AM 36.4406 -94.1292 249° West 260 299 5,300 -1,016 Descending Kansas City Center
Wed 10:07:13 AM 36.4167 -94.2042 248° West 248 285 3,900 -1,161 Descending Kansas City Center
Wed 10:08:15 AM 36.3956 -94.2739 249° West 230 265 2,900 -484 Descending Kansas City Center
Wed 10:09:17 AM 36.4347 -94.3089 324° Northwest 229 264 2,900  Level Kansas City Center
Wed 10:10:19 AM 36.4883 -94.3278 344° North 231 266 2,900  Level Kansas City Center
Wed 10:11:21 AM 36.4456 -94.3764 222° Southwest 237 273 2,900  Level Kansas City Center

Login

Don't have an account? Register now (free) for customized features, flight alerts, and more!